Kuujjuaq Airport, Quebec

Past 24 Hour Conditions

This table is a summary of hourly weather conditions for the past 24 hours. This summary includes the following parameters: temperature, humidity, dew point, wind speed and direction, air pressure, visibility and/or wind chill and humidex.
Date / Time
(EDT)
Conditions Temp (°C) Humidity (%) Dew Point (°C) Wind (km/h) Pressure (kPa) Vis (km) Wind Chill
01 October 2014
00:00 Mostly Cloudy -2   54 -10 WNW 23 102.0 24 -9
30 September 2014
23:00 Cloudy -2   67 -8 WNW 12 101.9 24 -7
22:00 Light Snow -2   66 -8 NW 22 101.9 19 -8
21:00 Mostly Cloudy -2   56 -10 NW 13 gust 29 101.8 24 -6
20:00 Partly Cloudy -2   60 -9 NW 22 gust 35 101.8 24 -8
19:00 Mostly Cloudy -1 64 -7 NW 19 gust 30 101.7 24 -7
18:00 Light Snowshower -2   73 -6 NW 13 gust 31 101.6 24 -6
17:00 Partly Cloudy -1 60 -7 NW 22 101.5 24 -6
16:00 Light Snowshower -1 65 -7 NW 18 gust 30 101.3 24 -6
15:00 Light Snowshower -1 64 -7 NW 26 gust 36 101.2 16 -7
14:00 Light Snowshower -1 65 -6 NNW 30 101.0 16 -7
13:00 Light Snowshower -1 79 -4 NNW 32 gust 49 100.8 11 -8
12:00 Light Snowshower 0 86 -2 NNW 29 gust 53 100.6 6 -7
11:00 Light Rainshower 2 81 -1 NW 36 gust 57 100.4 16 *
10:00 Mostly Cloudy 3   92 1 WNW 20 gust 34 100.2 13 *
9:00 Light Rain 2 95 2 WSW 17 100.2 10 *
8:00 Light Rain and Snow 2 95 1 WSW 23 gust 39 100.1 6 *
7:00 Light Rain and Snow 1 95 0 WSW 24 gust 36 100.2 6 *
6:00 Light Snow 1 94 0 SW 26 gust 39 100.3 6 *
5:00 Light Snow 1 95 0 SW 25 gust 43 100.4 5 *
4:00 Light Snow 1 94 0 SW 23 gust 37 100.6 5 *
3:00 Light Snow 1 95 0 SW 18 gust 28 100.8 6 *
2:00 Light Snow 0 96 0 SW 20 gust 29 100.9 5 *
1:00 Light Snow 0 94 -1 SW 21 101.0 6 *
00:00 Light Snow 0 94 -1 SW 23 gust 33 101.2 5 *
N/A
Not available
 ↑ 
Highest temperature
 ↓ 
Lowest temperature
*
Value not significant.

If you require additional historical weather information, please visit Climate Data Online.